Time;durP1;ratioP1;P1;durP2;ratioP2;P2;SDS_P1;SDS_P2;PMS_P1;PMS_P2;Temp;Humidity;BMP_temperature;BMP_pressure;BME280_temperature;BME280_humidity;BME280_pressure;Samples;Min_cycle;Max_cycle;Signal;HPM_P1;HPM_P2
2022/07/01 00:01:45;;;;;;;9.00;5.50;;;;;;;21.30;65.93;99932.44;130492;1267;107754;-82
2022/07/01 00:04:51;;;;;;;10.30;6.10;;;;;;;21.40;65.92;99939.15;130482;1267;109477;-82
2022/07/01 00:08:15;;;;;;;10.90;6.70;;;;;;;21.38;66.39;99956.38;130455;1267;108694;-79
2022/07/01 00:11:21;;;;;;;10.00;6.30;;;;;;;21.24;66.96;99962.96;130341;1267;108743;-78
2022/07/01 00:14:27;;;;;;;10.20;6.50;;;;;;;21.17;67.09;99971.23;130412;1267;106960;-79
2022/07/01 00:17:33;;;;;;;12.70;6.30;;;;;;;21.16;66.63;99974.67;130371;1267;108555;-78
2022/07/01 00:20:39;;;;;;;9.20;5.70;;;;;;;21.23;66.82;99978.26;130245;1268;107816;-77
2022/07/01 00:23:45;;;;;;;10.80;6.30;;;;;;;21.18;67.06;99986.64;130455;1266;107517;-76
2022/07/01 00:26:50;;;;;;;12.40;6.70;;;;;;;21.14;67.38;99984.34;130444;1267;108784;-77
2022/07/01 00:29:56;;;;;;;7.80;6.50;;;;;;;21.12;67.12;99982.34;130356;1267;108686;-80
2022/07/01 00:33:01;;;;;;;11.70;6.10;;;;;;;21.24;67.19;99973.79;130432;1267;108929;-79
2022/07/01 00:36:07;;;;;;;7.50;6.00;;;;;;;21.32;67.12;99968.86;130453;1267;108772;-79
2022/07/01 00:39:12;;;;;;;9.10;5.90;;;;;;;21.31;67.16;99974.31;130483;1267;108383;-79
2022/07/01 00:42:17;;;;;;;8.40;6.20;;;;;;;21.30;67.32;99974.74;130316;1267;108952;-79
2022/07/01 00:45:23;;;;;;;10.90;6.10;;;;;;;21.28;67.50;99973.19;130442;1267;108875;-78
2022/07/01 00:48:28;;;;;;;11.00;6.90;;;;;;;21.23;67.57;99969.16;130343;1267;108807;-80
2022/07/01 00:51:33;;;;;;;8.40;6.10;;;;;;;21.24;67.61;99967.06;130401;1267;108840;-75
2022/07/01 00:54:41;;;;;;;13.20;7.00;;;;;;;21.27;67.79;99963.47;130243;1268;108859;-77
2022/07/01 00:57:46;;;;;;;7.50;6.40;;;;;;;21.28;67.81;99972.72;130365;1267;109819;-78
2022/07/01 01:00:52;;;;;;;8.30;6.40;;;;;;;21.27;67.92;99975.84;130373;1267;108845;-79
2022/07/01 01:03:57;;;;;;;6.70;6.00;;;;;;;21.24;68.07;99974.52;130386;1267;108653;-79
2022/07/01 01:07:04;;;;;;;8.50;6.40;;;;;;;21.26;68.11;99974.17;130403;1267;108759;-78
2022/07/01 01:10:11;;;;;;;9.10;6.10;;;;;;;21.24;68.08;99962.88;130337;1267;108726;-79
2022/07/01 01:13:16;;;;;;;7.80;5.90;;;;;;;21.21;68.23;99964.01;130293;1267;108840;-79
2022/07/01 01:16:23;;;;;;;8.90;6.30;;;;;;;21.12;68.23;99960.95;130305;1267;108951;-78
2022/07/01 01:19:29;;;;;;;8.60;6.70;;;;;;;20.95;68.44;99960.20;130425;1267;108193;-78
2022/07/01 01:22:34;;;;;;;10.30;7.10;;;;;;;20.84;68.70;99964.07;130394;1267;108696;-76
2022/07/01 01:25:39;;;;;;;9.30;6.40;;;;;;;20.84;68.82;99964.66;130329;1267;107679;-77
2022/07/01 01:28:45;;;;;;;13.70;7.10;;;;;;;20.83;69.10;99966.06;130323;1267;108690;-78
2022/07/01 01:31:50;;;;;;;7.20;6.00;;;;;;;20.80;69.08;99968.96;130327;1267;107595;-78
2022/07/01 01:34:56;;;;;;;8.00;6.50;;;;;;;20.71;69.15;99963.87;130361;1267;108672;-78
2022/07/01 01:38:01;;;;;;;10.70;7.30;;;;;;;20.65;69.40;99966.69;130319;1267;108967;-80
2022/07/01 01:41:09;;;;;;;9.60;6.70;;;;;;;20.73;69.31;99968.75;130332;1267;108880;-76
2022/07/01 01:44:14;;;;;;;12.50;7.50;;;;;;;20.77;69.38;99970.94;130406;1267;109686;-76
2022/07/01 01:47:20;;;;;;;12.50;8.50;;;;;;;20.74;69.57;99966.98;130377;1267;108812;-74
2022/07/01 01:50:25;;;;;;;11.90;8.20;;;;;;;20.72;69.85;99963.14;130433;1267;108730;-75
2022/07/01 01:53:30;;;;;;;11.00;8.10;;;;;;;20.75;69.85;99957.92;130215;1268;108955;-75
2022/07/01 01:56:36;;;;;;;10.60;7.70;;;;;;;20.84;69.83;99956.91;130302;1266;108730;-75
2022/07/01 01:59:41;;;;;;;9.60;8.30;;;;;;;20.93;69.79;99960.98;130366;1267;108743;-76
2022/07/01 02:02:47;;;;;;;11.90;7.80;;;;;;;21.00;69.71;99958.58;130598;1267;109174;-78
2022/07/01 02:05:52;;;;;;;13.00;8.90;;;;;;;21.03;69.83;99962.55;130290;1267;108787;-79
2022/07/01 02:08:58;;;;;;;10.80;8.90;;;;;;;20.98;69.92;99967.57;130362;1269;108950;-79
2022/07/01 02:12:04;;;;;;;9.50;7.90;;;;;;;20.94;70.02;99970.67;130309;1268;109019;-79
2022/07/01 02:15:10;;;;;;;11.50;7.00;;;;;;;20.96;70.07;99965.06;130213;1269;108622;-75
2022/07/01 02:18:16;;;;;;;10.80;7.50;;;;;;;20.97;70.16;99958.20;130157;1268;107752;-80
2022/07/01 02:21:22;;;;;;;8.80;7.50;;;;;;;21.02;70.26;99954.42;130233;1268;107745;-76
2022/07/01 02:24:28;;;;;;;9.80;8.70;;;;;;;21.12;70.27;99955.15;130157;1268;108949;-81
2022/07/01 02:27:33;;;;;;;11.90;8.60;;;;;;;21.22;70.26;99946.29;130186;1270;108876;-76
2022/07/01 02:30:39;;;;;;;12.90;9.40;;;;;;;21.28;70.11;99948.25;130214;1268;110241;-75
2022/07/01 02:33:44;;;;;;;11.20;8.10;;;;;;;21.33;70.15;99949.46;130235;1268;108700;-78
2022/07/01 02:36:52;;;;;;;11.60;8.90;;;;;;;21.41;70.03;99951.95;130213;1268;108888;-81
2022/07/01 02:39:58;;;;;;;9.50;8.20;;;;;;;21.47;69.89;99954.64;130265;1268;108645;-78
2022/07/01 02:43:03;;;;;;;10.00;8.50;;;;;;;21.55;69.89;99955.77;130270;1268;108703;-80
2022/07/01 02:46:09;;;;;;;12.10;8.00;;;;;;;21.62;69.92;99953.58;130256;1268;108730;-80
2022/07/01 02:49:16;;;;;;;12.30;8.40;;;;;;;21.68;70.01;99951.73;130234;1270;108834;-78
2022/07/01 02:52:21;;;;;;;9.20;7.60;;;;;;;21.73;70.09;99949.90;130296;1268;108444;-78
2022/07/01 02:55:28;;;;;;;9.30;8.10;;;;;;;21.72;69.89;99943.64;130335;1268;109002;-78
2022/07/01 02:58:34;;;;;;;9.70;7.90;;;;;;;21.70;69.67;99942.83;130230;1270;107169;-78
2022/07/01 03:01:40;;;;;;;10.40;7.50;;;;;;;21.73;69.65;99938.12;130399;1270;108944;-79
2022/07/01 03:04:45;;;;;;;10.40;7.10;;;;;;;21.75;69.72;99935.18;130290;1268;108589;-78
2022/07/01 03:07:50;;;;;;;9.10;7.90;;;;;;;21.81;69.76;99938.13;130210;1268;108953;-79
2022/07/01 03:10:56;;;;;;;11.10;8.00;;;;;;;21.87;69.74;99936.98;130302;1268;108923;-78
2022/07/01 03:14:01;;;;;;;11.00;7.90;;;;;;;21.88;69.68;99937.61;130247;1268;108845;-79
2022/07/01 03:17:07;;;;;;;9.80;8.00;;;;;;;21.97;69.61;99938.57;130229;1268;108909;-80
2022/07/01 03:20:15;;;;;;;8.80;7.90;;;;;;;22.09;69.55;99942.50;130211;1268;108984;-79
2022/07/01 03:23:20;;;;;;;9.60;7.80;;;;;;;22.23;69.31;99940.48;130345;1268;108286;-79
2022/07/01 03:26:26;;;;;;;10.50;7.20;;;;;;;22.35;69.39;99936.64;130224;1269;109673;-80
2022/07/01 03:29:31;;;;;;;9.50;7.30;;;;;;;22.55;69.19;99936.48;130231;1270;108862;-79
2022/07/01 03:32:36;;;;;;;8.20;7.40;;;;;;;22.71;68.79;99932.59;130226;1268;108837;-80
2022/07/01 03:35:45;;;;;;;10.20;7.50;;;;;;;22.85;68.45;99931.47;130262;1268;108879;-78
2022/07/01 03:38:50;;;;;;;10.40;7.70;;;;;;;23.03;67.95;99931.19;130240;1268;107601;-79
2022/07/01 03:41:56;;;;;;;11.20;8.40;;;;;;;23.18;67.94;99929.35;130217;1268;108947;-79
2022/07/01 03:45:01;;;;;;;9.20;8.00;;;;;;;23.32;67.73;99922.58;130190;1270;108645;-79
2022/07/01 03:48:07;;;;;;;9.70;7.50;;;;;;;23.45;67.37;99922.52;130214;1269;109072;-79
2022/07/01 03:51:12;;;;;;;9.30;8.00;;;;;;;23.55;67.44;99925.63;130229;1269;108344;-80
2022/07/01 03:54:32;;;;;;;9.60;7.30;;;;;;;23.66;67.15;99926.75;130331;1268;108782;-80
2022/07/01 03:57:37;;;;;;;8.70;7.50;;;;;;;23.78;66.62;99927.91;130338;1268;108132;-80
2022/07/01 04:00:43;;;;;;;9.00;7.10;;;;;;;23.85;66.77;99928.44;130274;1269;108842;-80
2022/07/01 04:03:48;;;;;;;11.90;8.30;;;;;;;23.99;66.36;99923.67;130281;1268;108847;-80
2022/07/01 04:06:56;;;;;;;9.40;7.60;;;;;;;24.09;66.27;99922.18;130213;1269;108846;-79
2022/07/01 04:10:01;;;;;;;9.20;7.10;;;;;;;24.21;65.81;99921.98;130291;1268;108925;-80
2022/07/01 04:13:06;;;;;;;10.10;6.90;;;;;;;24.28;65.72;99922.02;130217;1268;108661;-80
2022/07/01 04:16:12;;;;;;;12.10;7.30;;;;;;;24.40;65.56;99921.30;130273;1270;108796;-80
2022/07/01 04:19:20;;;;;;;8.60;6.90;;;;;;;24.55;65.81;99916.60;130298;1270;108943;-79
2022/07/01 04:22:35;;;;;;;8.20;7.10;;;;;;;24.74;65.36;99920.83;130318;1270;108276;-78
2022/07/01 04:25:41;;;;;;;10.20;7.10;;;;;;;24.92;65.35;99920.64;130286;1268;108905;-81
2022/07/01 04:28:46;;;;;;;8.20;6.80;;;;;;;25.08;65.49;99925.90;130331;1269;108840;-78
2022/07/01 04:31:51;;;;;;;9.20;7.00;;;;;;;25.27;65.33;99922.17;130318;1268;108680;-79
2022/07/01 04:34:57;;;;;;;9.70;7.20;;;;;;;25.45;65.24;99921.68;130260;1268;108705;-80
2022/07/01 04:38:02;;;;;;;10.30;7.70;;;;;;;25.60;64.97;99913.95;130186;1268;108854;-79
2022/07/01 04:44:32;;;;;;;7.90;7.10;;;;;;;25.82;64.29;99903.17;130223;1268;107388;-81
2022/07/01 04:47:37;;;;;;;7.50;6.20;;;;;;;25.93;64.01;99900.70;130222;1268;108546;-79
2022/07/01 04:50:42;;;;;;;8.20;6.80;;;;;;;26.08;64.04;99899.33;130220;1268;108742;-79
2022/07/01 04:53:48;;;;;;;11.00;7.60;;;;;;;26.23;63.72;99902.90;130250;1268;108566;-79
2022/07/01 04:56:53;;;;;;;10.10;7.60;;;;;;;26.29;63.12;99904.91;130261;1268;108922;-78
2022/07/01 04:59:59;;;;;;;9.80;7.10;;;;;;;26.40;63.47;99909.40;130217;1268;108805;-79
2022/07/01 05:03:04;;;;;;;9.50;7.70;;;;;;;26.53;63.36;99901.73;130230;1268;108894;-79
2022/07/01 05:06:09;;;;;;;9.20;8.30;;;;;;;26.61;63.15;99902.23;130253;1268;108839;-77
2022/07/01 05:09:15;;;;;;;8.00;7.30;;;;;;;26.70;63.16;99900.67;130276;1268;108728;-78
2022/07/01 05:12:20;;;;;;;9.10;8.10;;;;;;;26.78;62.84;99907.27;130237;1269;108711;-78
2022/07/01 05:15:26;;;;;;;11.50;9.00;;;;;;;26.80;62.21;99908.14;130236;1268;108728;-78
2022/07/01 05:21:58;;;;;;;10.30;9.30;;;;;;;26.85;61.85;99898.69;130238;1268;108689;-78
2022/07/01 05:25:03;;;;;;;9.30;8.40;;;;;;;26.90;61.95;99897.55;130218;1268;108849;-78
2022/07/01 05:28:08;;;;;;;11.30;10.00;;;;;;;26.97;61.79;99896.42;130249;1268;108483;-78
2022/07/01 05:31:14;;;;;;;10.20;9.20;;;;;;;27.02;61.65;99891.27;130291;1268;108571;-78
2022/07/01 05:34:20;;;;;;;11.30;10.20;;;;;;;27.07;61.43;99889.71;130288;1268;108832;-84
2022/07/01 05:37:26;;;;;;;11.60;10.50;;;;;;;27.13;61.43;99887.35;130328;1268;108158;-90
2022/07/01 05:40:31;;;;;;;11.20;10.20;;;;;;;27.22;61.83;99888.73;130323;1268;106834;-77
2022/07/01 05:43:37;;;;;;;12.00;10.70;;;;;;;27.32;61.77;99891.30;130340;1268;108720;-85
2022/07/01 05:46:42;;;;;;;12.40;10.70;;;;;;;27.40;61.49;99889.70;130347;1268;108895;-81
2022/07/01 05:49:47;;;;;;;13.40;10.70;;;;;;;27.47;61.37;99885.38;130308;1268;108804;-83
2022/07/01 05:52:53;;;;;;;11.90;10.80;;;;;;;27.54;61.51;99888.67;130364;1268;108770;-81
2022/07/01 05:55:58;;;;;;;12.30;10.60;;;;;;;27.61;61.58;99887.95;130347;1268;108773;-83
2022/07/01 05:59:04;;;;;;;12.40;11.20;;;;;;;27.69;61.12;99889.64;130306;1267;108993;-83
2022/07/01 06:02:09;;;;;;;12.60;11.40;;;;;;;27.75;61.11;99890.95;130303;1268;108932;-81
2022/07/01 06:05:15;;;;;;;12.80;11.60;;;;;;;27.80;60.80;99894.61;130368;1268;108276;-83
2022/07/01 06:08:20;;;;;;;12.80;11.40;;;;;;;27.84;60.85;99888.63;130352;1268;108730;-84
2022/07/01 06:11:26;;;;;;;12.60;11.00;;;;;;;27.88;60.97;99889.20;130307;1268;108948;-81
2022/07/01 06:14:31;;;;;;;12.40;11.20;;;;;;;27.95;60.95;99883.66;130348;1268;108866;-82
2022/07/01 06:17:37;;;;;;;12.30;11.20;;;;;;;28.00;60.74;99883.20;130591;1268;109751;-83
2022/07/01 06:20:42;;;;;;;12.40;11.20;;;;;;;28.03;60.60;99879.63;130343;1268;108726;-82
2022/07/01 06:23:47;;;;;;;12.60;11.20;;;;;;;28.05;60.58;99875.01;130338;1268;108988;-86
2022/07/01 06:26:53;;;;;;;12.50;11.30;;;;;;;28.07;60.62;99871.83;130335;1268;108826;-83
2022/07/01 06:29:58;;;;;;;13.00;11.60;;;;;;;28.12;60.72;99873.73;130371;1268;108814;-81
2022/07/01 06:33:03;;;;;;;11.80;10.80;;;;;;;28.13;60.55;99871.04;130327;1270;108837;-83
2022/07/01 06:36:09;;;;;;;12.30;10.80;;;;;;;28.13;60.42;99870.77;130298;1270;109052;-82
2022/07/01 06:39:15;;;;;;;12.30;11.00;;;;;;;28.16;60.37;99869.76;130275;1268;108737;-83
2022/07/01 06:42:21;;;;;;;11.90;10.60;;;;;;;28.18;60.18;99866.30;130237;1271;108770;-83
2022/07/01 06:45:27;;;;;;;11.90;10.70;;;;;;;28.22;60.32;99866.17;130182;1271;107627;-84
2022/07/01 06:48:32;;;;;;;11.60;10.60;;;;;;;28.28;60.14;99866.65;130189;1268;108754;-83
2022/07/01 06:51:37;;;;;;;12.80;10.70;;;;;;;28.29;60.06;99865.99;130196;1270;108761;-81
2022/07/01 06:54:43;;;;;;;12.00;10.80;;;;;;;28.33;60.24;99861.80;130255;1270;109075;-82
2022/07/01 06:57:48;;;;;;;11.30;10.30;;;;;;;28.38;59.72;99859.32;130292;1271;108752;-82
2022/07/01 07:00:54;;;;;;;11.70;10.70;;;;;;;28.42;60.01;99856.27;130160;1268;108734;-83
2022/07/01 07:03:59;;;;;;;12.40;10.50;;;;;;;28.49;59.77;99853.99;130185;1271;108718;-83
2022/07/01 07:07:05;;;;;;;12.30;11.10;;;;;;;28.56;59.88;99860.73;130240;1270;108961;-84
2022/07/01 07:10:11;;;;;;;12.80;10.30;;;;;;;28.62;59.58;99858.84;130409;1268;107804;-83
2022/07/01 07:13:16;;;;;;;11.40;10.40;;;;;;;28.66;59.40;99860.91;130424;1268;108776;-82
2022/07/01 07:16:22;;;;;;;12.00;10.40;;;;;;;28.71;59.35;99861.98;130407;1268;108954;-82
2022/07/01 07:19:28;;;;;;;11.50;10.50;;;;;;;28.75;59.19;99861.07;130350;1268;108710;-81
2022/07/01 07:22:33;;;;;;;11.40;9.80;;;;;;;28.84;59.08;99861.40;130252;1268;108839;-84
2022/07/01 07:25:39;;;;;;;11.20;10.10;;;;;;;28.91;59.04;99867.91;130278;1271;108824;-80
2022/07/01 07:28:44;;;;;;;10.40;9.50;;;;;;;29.01;59.16;99867.33;130333;1268;108554;-81
2022/07/01 07:31:50;;;;;;;10.70;9.60;;;;;;;29.11;58.96;99866.29;130330;1268;108868;-81
2022/07/01 07:34:55;;;;;;;10.40;9.50;;;;;;;29.21;59.42;99864.98;130339;1268;108850;-81
2022/07/01 07:38:00;;;;;;;11.30;9.40;;;;;;;29.28;58.83;99866.56;130433;1267;108792;-82
2022/07/01 07:41:06;;;;;;;10.00;9.00;;;;;;;29.36;58.87;99868.64;130439;1267;108758;-81
2022/07/01 07:44:11;;;;;;;9.90;9.00;;;;;;;29.43;58.00;99870.50;130400;1267;108706;-80
2022/07/01 07:47:16;;;;;;;9.80;8.80;;;;;;;29.52;58.19;99869.98;130403;1267;108899;-81
2022/07/01 07:50:23;;;;;;;9.70;8.90;;;;;;;29.60;58.26;99869.69;130436;1267;108736;-83
2022/07/01 07:53:29;;;;;;;10.10;9.10;;;;;;;29.69;58.09;99870.38;130417;1266;109595;-83
2022/07/01 07:56:34;;;;;;;10.70;9.10;;;;;;;29.79;58.02;99872.40;130426;1267;108702;-83
2022/07/01 07:59:39;;;;;;;9.60;8.70;;;;;;;29.87;57.56;99874.13;130441;1267;108796;-85
2022/07/01 08:02:45;;;;;;;10.60;9.20;;;;;;;29.94;57.47;99873.01;130420;1267;108566;-83
2022/07/01 08:05:52;;;;;;;10.20;9.00;;;;;;;30.01;57.34;99867.04;130448;1267;108915;-83
2022/07/01 08:08:57;;;;;;;10.20;9.30;;;;;;;30.08;57.17;99865.48;130435;1267;107736;-81
2022/07/01 08:12:03;;;;;;;9.60;8.70;;;;;;;30.15;57.37;99864.96;130451;1267;107559;-84
2022/07/01 08:15:10;;;;;;;9.60;8.70;;;;;;;30.24;57.21;99864.80;130439;1266;108669;-81
2022/07/01 08:18:15;;;;;;;11.50;8.80;;;;;;;30.31;56.87;99867.27;130389;1267;108684;-83
2022/07/01 08:21:21;;;;;;;9.80;8.90;;;;;;;30.38;56.85;99871.00;130502;1267;107782;-82
2022/07/01 08:24:26;;;;;;;10.20;8.70;;;;;;;30.45;56.70;99868.80;130265;1268;108731;-84
2022/07/01 08:27:32;;;;;;;10.20;8.50;;;;;;;30.52;56.74;99872.64;130456;1267;108682;-84
2022/07/01 08:30:38;;;;;;;9.90;8.90;;;;;;;30.60;56.52;99874.79;130492;1267;108859;-84
2022/07/01 08:33:44;;;;;;;10.30;8.60;;;;;;;30.66;56.27;99874.14;130476;1267;108977;-84
2022/07/01 08:36:50;;;;;;;9.40;8.50;;;;;;;30.72;55.64;99875.45;130333;1268;109213;-82
2022/07/01 08:39:55;;;;;;;9.30;8.50;;;;;;;30.76;55.45;99871.30;130237;1268;108101;-85
2022/07/01 08:43:03;;;;;;;9.00;8.30;;;;;;;30.80;55.17;99866.96;130390;1267;107762;-85
2022/07/01 08:46:09;;;;;;;9.50;8.20;;;;;;;30.83;54.88;99865.86;130432;1267;108852;-84
2022/07/01 08:49:16;;;;;;;9.30;8.30;;;;;;;30.87;54.52;99865.92;130379;1267;108564;-84
2022/07/01 08:52:22;;;;;;;9.50;8.50;;;;;;;30.93;54.48;99868.73;130428;1268;107603;-84
2022/07/01 08:55:27;;;;;;;9.20;8.20;;;;;;;31.00;54.61;99860.30;130405;1268;108839;-83
2022/07/01 08:58:33;;;;;;;9.70;8.10;;;;;;;31.08;54.15;99858.36;130280;1268;108896;-84
2022/07/01 09:01:39;;;;;;;9.20;8.30;;;;;;;31.14;54.38;99849.79;130264;1268;108625;-84
2022/07/01 09:04:45;;;;;;;8.90;8.00;;;;;;;31.18;53.68;99849.49;130423;1268;108738;-84
2022/07/01 09:07:55;;;;;;;9.30;8.30;;;;;;;31.21;53.89;99848.66;130381;1268;108697;-83
2022/07/01 09:11:13;;;;;;;8.30;7.70;;;;;;;31.25;53.22;99840.42;130698;1268;108726;-84
2022/07/01 09:14:19;;;;;;;8.70;7.80;;;;;;;31.29;53.04;99841.27;130404;1268;108718;-81
2022/07/01 09:17:24;;;;;;;8.30;7.50;;;;;;;31.35;52.82;99839.58;130350;1268;108879;-85
2022/07/01 09:20:33;;;;;;;9.20;7.70;;;;;;;31.41;53.01;99840.23;130306;1268;108810;-84
2022/07/01 09:23:39;;;;;;;8.60;7.70;;;;;;;31.46;52.97;99842.92;130282;1268;108696;-85
2022/07/01 09:26:54;;;;;;;8.40;7.70;;;;;;;31.54;52.82;99843.79;130375;1268;107783;-81
2022/07/01 09:30:00;;;;;;;11.00;8.10;;;;;;;31.63;53.08;99844.95;130269;1268;108698;-81
2022/07/01 09:33:15;;;;;;;9.00;7.80;;;;;;;31.68;52.05;99849.20;130292;1268;108644;-80
2022/07/01 09:36:20;;;;;;;8.30;7.50;;;;;;;31.71;52.04;99850.57;130281;1268;108703;-82
2022/07/01 09:39:26;;;;;;;9.60;7.50;;;;;;;31.77;51.76;99854.51;130273;1268;107734;-82
2022/07/01 09:42:32;;;;;;;8.70;7.70;;;;;;;31.82;51.64;99852.86;130320;1268;108766;-81
2022/07/01 09:45:38;;;;;;;8.00;7.30;;;;;;;31.89;51.40;99851.30;130208;1268;108850;-81
2022/07/01 09:48:47;;;;;;;8.90;7.60;;;;;;;31.95;50.99;99845.10;130246;1268;108765;-82
2022/07/01 09:51:53;;;;;;;8.40;7.50;;;;;;;31.99;51.08;99846.52;130308;1268;108827;-82
2022/07/01 09:54:59;;;;;;;8.50;7.70;;;;;;;32.04;51.17;99847.61;130430;1268;108578;-82
2022/07/01 09:58:04;;;;;;;8.80;7.50;;;;;;;32.11;51.00;99846.20;130454;1268;107403;-82
2022/07/01 10:01:11;;;;;;;8.50;7.70;;;;;;;32.15;49.65;99846.02;130455;1267;107543;-82
2022/07/01 10:04:18;;;;;;;8.10;7.40;;;;;;;32.18;50.35;99844.35;130309;1268;108884;-82
2022/07/01 10:07:38;;;;;;;10.90;7.20;;;;;;;32.24;50.27;99840.52;130275;1269;107726;-82
2022/07/01 10:10:51;;;;;;;7.80;7.10;;;;;;;32.29;49.37;99837.27;130268;1268;108856;-82
2022/07/01 10:14:00;;;;;;;8.00;7.20;;;;;;;32.33;49.72;99832.38;130359;1268;108642;-83
2022/07/01 10:17:06;;;;;;;7.90;7.10;;;;;;;32.38;49.65;99834.22;130319;1268;108691;-82
2022/07/01 10:20:17;;;;;;;8.60;7.80;;;;;;;32.41;49.71;99832.04;130461;1268;109007;-82
2022/07/01 10:23:24;;;;;;;7.90;7.20;;;;;;;32.46;48.88;99827.34;130406;1267;108743;-85
2022/07/01 10:26:32;;;;;;;7.90;7.10;;;;;;;32.51;48.66;99822.77;130409;1267;108852;-83
2022/07/01 10:29:39;;;;;;;8.60;7.30;;;;;;;32.54;48.16;99827.80;130437;1267;108810;-84
2022/07/01 10:32:52;;;;;;;7.70;6.90;;;;;;;32.56;48.22;99815.94;130249;1268;108626;-83
2022/07/01 10:36:03;;;;;;;7.90;7.10;;;;;;;32.61;47.76;99820.09;130481;1268;107651;-84
2022/07/01 10:39:27;;;;;;;11.50;6.70;;;;;;;32.64;48.26;99816.36;130354;1268;109004;-83
2022/07/01 10:42:36;;;;;;;7.30;6.70;;;;;;;32.67;47.15;99816.64;130363;1268;108707;-83
2022/07/01 10:45:45;;;;;;;9.40;6.60;;;;;;;32.65;46.41;99811.03;130354;1268;108595;-82
2022/07/01 10:48:51;;;;;;;7.70;6.90;;;;;;;32.66;46.11;99814.39;130317;1268;108735;-83
2022/07/01 10:51:59;;;;;;;8.50;6.50;;;;;;;32.71;46.07;99811.47;130468;1268;108546;-82
2022/07/01 10:55:07;;;;;;;7.90;6.70;;;;;;;32.76;46.02;99805.98;130471;1266;107205;-81
2022/07/01 10:58:13;;;;;;;7.60;6.40;;;;;;;32.81;46.00;99806.25;130383;1268;108668;-82
2022/07/01 11:01:20;;;;;;;6.50;5.80;;;;;;;32.84;45.50;99806.45;130318;1268;108639;-82
2022/07/01 11:04:25;;;;;;;8.00;7.10;;;;;;;32.89;45.60;99807.52;130384;1268;108543;-85
2022/07/01 11:07:33;;;;;;;10.00;6.70;;;;;;;32.91;45.45;99804.80;130435;1268;108666;-85
2022/07/01 11:10:38;;;;;;;9.20;7.30;;;;;;;32.95;45.12;99805.54;130391;1268;108761;-83
2022/07/01 11:13:44;;;;;;;8.40;7.30;;;;;;;32.97;44.85;99802.39;130376;1268;107789;-85
2022/07/01 11:17:16;;;;;;;7.70;6.80;;;;;;;32.99;45.13;99800.44;130458;1268;108633;-86
2022/07/01 11:20:24;;;;;;;7.70;7.00;;;;;;;33.03;44.48;99789.09;130420;1268;108697;-86
2022/07/01 11:23:30;;;;;;;8.00;6.80;;;;;;;33.07;44.33;99784.17;130406;1268;108841;-86
2022/07/01 11:26:35;;;;;;;8.00;6.70;;;;;;;33.11;44.01;99785.36;130341;1268;108740;-84
2022/07/01 11:29:40;;;;;;;7.60;6.80;;;;;;;33.15;44.24;99785.98;130238;1268;242054;-84
2022/07/01 11:32:48;;;;;;;7.20;6.50;;;;;;;33.21;43.98;99782.67;130332;1268;108619;-79
2022/07/01 11:39:25;;;;;;;7.10;6.10;;;;;;;33.28;42.92;99770.98;130204;1268;108573;-80
2022/07/01 11:42:30;;;;;;;8.20;6.50;;;;;;;33.33;43.06;99770.38;130356;1268;108795;-78
2022/07/01 11:45:36;;;;;;;7.70;7.00;;;;;;;33.34;42.96;99764.26;130220;1268;108854;-78
2022/07/01 11:48:44;;;;;;;7.70;6.90;;;;;;;33.38;42.74;99763.59;130245;1268;108227;-80
2022/07/01 11:51:58;;;;;;;7.80;6.90;;;;;;;33.40;42.63;99755.41;130304;1268;108793;-78
2022/07/01 11:55:04;;;;;;;7.50;6.70;;;;;;;33.43;42.65;99751.50;130265;1268;108741;-80
2022/07/01 11:58:09;;;;;;;7.00;6.40;;;;;;;33.45;42.36;99747.26;130340;1268;108778;-79
2022/07/01 12:01:22;;;;;;;7.70;6.80;;;;;;;33.48;42.00;99746.30;130308;1268;108801;-80
2022/07/01 12:04:30;;;;;;;7.90;7.00;;;;;;;33.50;42.18;99748.88;130296;1268;107868;-77
2022/07/01 12:07:36;;;;;;;7.10;6.40;;;;;;;33.53;41.95;99745.11;130222;1268;108469;-79
2022/07/01 12:10:41;;;;;;;6.90;6.20;;;;;;;33.53;41.70;99744.37;130264;1268;108863;-79
2022/07/01 12:13:49;;;;;;;8.10;6.80;;;;;;;33.52;41.17;99744.36;130382;1268;108922;-80
2022/07/01 12:16:57;;;;;;;7.20;6.40;;;;;;;33.51;41.14;99736.97;130384;1268;108769;-78
2022/07/01 12:20:02;;;;;;;7.20;6.50;;;;;;;33.53;41.33;99738.64;130192;1268;108737;-80
2022/07/01 12:23:15;;;;;;;7.00;6.40;;;;;;;33.56;40.96;99734.33;130193;1268;108755;-78
2022/07/01 12:26:20;;;;;;;10.10;6.90;;;;;;;33.59;40.86;99737.13;130259;1268;108743;-81
2022/07/01 12:29:28;;;;;;;7.80;6.80;;;;;;;33.61;40.75;99732.19;130312;1268;108747;-79
2022/07/01 12:32:38;;;;;;;7.00;6.40;;;;;;;33.65;40.76;99732.00;130248;1268;108868;-78
2022/07/01 12:35:43;;;;;;;7.80;6.60;;;;;;;33.66;40.63;99725.02;130205;1268;108806;-79
2022/07/01 12:39:03;;;;;;;8.60;6.60;;;;;;;33.68;40.18;99717.83;130280;1268;108743;-79
2022/07/01 12:42:09;;;;;;;7.50;6.70;;;;;;;33.71;40.58;99717.12;130334;1267;108656;-79
2022/07/01 12:45:16;;;;;;;7.60;6.90;;;;;;;33.75;40.83;99716.17;130204;1268;108761;-79
2022/07/01 12:48:21;;;;;;;7.30;6.60;;;;;;;33.79;40.53;99713.23;130271;1268;109572;-79
2022/07/01 12:51:33;;;;;;;8.00;6.60;;;;;;;33.82;40.26;99709.73;130197;1268;108748;-79
2022/07/01 12:54:38;;;;;;;6.70;6.00;;;;;;;33.85;40.50;99711.23;130212;1268;108826;-79
2022/07/01 12:57:44;;;;;;;6.90;6.30;;;;;;;33.85;40.21;99709.07;130251;1268;108665;-79
2022/07/01 13:00:51;;;;;;;7.20;6.40;;;;;;;33.84;40.08;99709.68;130230;1268;108204;-79
2022/07/01 13:03:57;;;;;;;7.90;6.90;;;;;;;33.85;40.00;99705.30;130205;1268;110176;-79
2022/07/01 13:07:02;;;;;;;7.10;6.50;;;;;;;33.84;39.84;99704.95;130223;1268;109138;-79
2022/07/01 13:10:09;;;;;;;8.50;6.70;;;;;;;33.86;39.89;99704.52;130211;1268;108764;-79
2022/07/01 13:13:16;;;;;;;6.90;6.00;;;;;;;33.87;39.63;99702.94;130164;1268;108782;-79
2022/07/01 13:16:22;;;;;;;7.30;6.60;;;;;;;33.87;39.10;99701.16;130206;1268;107753;-80
2022/07/01 13:19:27;;;;;;;7.00;6.30;;;;;;;33.85;38.92;99701.04;130204;1268;108782;-80
2022/07/01 13:22:32;;;;;;;6.90;6.20;;;;;;;33.85;39.11;99700.06;130209;1268;108778;-79
2022/07/01 13:25:38;;;;;;;10.20;6.60;;;;;;;33.86;38.89;99701.14;130177;1268;107341;-79
2022/07/01 13:28:44;;;;;;;6.80;6.20;;;;;;;33.90;39.25;99693.71;130202;1268;109696;-80
2022/07/01 13:31:49;;;;;;;7.60;6.30;;;;;;;33.95;39.18;99689.14;130223;1268;108793;-80
2022/07/01 13:34:55;;;;;;;7.80;6.10;;;;;;;33.98;39.08;99692.40;130235;1268;107693;-80
2022/07/01 13:38:00;;;;;;;10.70;6.90;;;;;;;34.00;39.02;99690.52;130207;1268;108850;-80
2022/07/01 13:41:05;;;;;;;7.20;6.30;;;;;;;33.99;38.90;99697.02;130161;1268;108890;-79
2022/07/01 13:44:11;;;;;;;7.50;6.50;;;;;;;34.00;39.18;99694.62;130239;1268;108867;-81
2022/07/01 13:47:16;;;;;;;8.10;6.50;;;;;;;34.04;38.84;99692.82;130270;1268;108692;-80
2022/07/01 13:50:22;;;;;;;7.90;6.40;;;;;;;34.05;38.91;99690.65;130329;1268;108789;-80
2022/07/01 13:53:27;;;;;;;7.50;6.30;;;;;;;34.06;38.67;99683.22;130292;1268;108918;-80
2022/07/01 13:56:32;;;;;;;6.40;5.70;;;;;;;34.05;38.68;99682.51;130336;1268;109223;-80
2022/07/01 13:59:38;;;;;;;7.70;5.80;;;;;;;34.08;38.40;99683.81;130388;1268;108925;-80
2022/07/01 14:02:43;;;;;;;7.40;5.90;;;;;;;34.10;38.40;99687.00;130392;1268;108933;-80
2022/07/01 14:05:49;;;;;;;6.30;5.50;;;;;;;34.10;37.78;99685.72;130380;1268;108621;-80
2022/07/01 14:08:55;;;;;;;6.60;5.90;;;;;;;34.12;37.82;99681.30;130353;1268;109970;-80
2022/07/01 14:12:01;;;;;;;10.00;6.10;;;;;;;34.14;37.57;99679.51;130260;1268;108882;-80
2022/07/01 14:15:09;;;;;;;7.20;6.10;;;;;;;34.15;37.44;99679.55;130232;1268;108727;-80
2022/07/01 14:18:14;;;;;;;7.50;5.40;;;;;;;34.15;37.36;99675.50;130250;1268;109805;-80
2022/07/01 14:21:20;;;;;;;6.90;6.20;;;;;;;34.15;37.45;99664.99;130211;1268;108935;-80